Time;durP1;ratioP1;P1;durP2;ratioP2;P2;SDS_P1;SDS_P2;PMS_P1;PMS_P2;Temp;Humidity;BMP_temperature;BMP_pressure;BME280_temperature;BME280_humidity;BME280_pressure;Samples;Min_cycle;Max_cycle;Signal;HPM_P1;HPM_P2
2023/12/15 00:02:06;;;;;;;10.93;6.97;;;6.40;99.90;;;;;;4922123;29;20155;-76
2023/12/15 00:04:32;;;;;;;10.27;7.25;;;6.40;99.90;;;;;;4904335;29;20040;-76
2023/12/15 00:06:57;;;;;;;11.30;6.68;;;6.40;99.90;;;;;;4922484;29;20090;-76
2023/12/15 00:09:23;;;;;;;9.88;5.90;;;6.40;99.90;;;;;;4927233;29;20051;-77
2023/12/15 00:11:49;;;;;;;11.73;6.03;;;6.40;99.90;;;;;;4922870;29;20082;-77
2023/12/15 00:14:14;;;;;;;12.48;6.22;;;6.40;99.90;;;;;;4909534;29;20044;-77
2023/12/15 00:16:40;;;;;;;11.73;6.40;;;6.40;99.90;;;;;;4923705;29;20047;-76
2023/12/15 00:19:06;;;;;;;11.65;7.43;;;6.50;99.90;;;;;;4927157;29;20534;-76
2023/12/15 00:21:31;;;;;;;9.82;6.80;;;6.40;99.90;;;;;;4925407;29;20399;-76
2023/12/15 00:23:57;;;;;;;15.05;6.85;;;6.50;99.90;;;;;;4908692;29;20044;-76
2023/12/15 00:26:22;;;;;;;15.15;7.00;;;6.50;99.90;;;;;;4943208;29;20051;-76
2023/12/15 00:28:48;;;;;;;13.75;5.78;;;6.50;99.90;;;;;;4961275;28;20043;-76
2023/12/15 00:31:14;;;;;;;10.63;7.22;;;6.50;99.90;;;;;;4944753;29;20083;-76
2023/12/15 00:33:39;;;;;;;11.40;6.45;;;6.50;99.90;;;;;;4947200;28;20063;-76
2023/12/15 00:36:06;;;;;;;15.75;6.82;;;6.50;99.90;;;;;;4924870;29;20047;-77
2023/12/15 00:38:31;;;;;;;18.65;9.18;;;6.50;99.90;;;;;;4925762;29;20555;-76
2023/12/15 00:40:57;;;;;;;12.15;7.35;;;6.50;99.90;;;;;;4925378;29;20052;-76
2023/12/15 00:43:22;;;;;;;12.70;7.15;;;6.50;99.90;;;;;;4918539;29;20079;-76
2023/12/15 00:45:48;;;;;;;12.88;6.85;;;6.50;99.90;;;;;;4921066;29;20130;-76
2023/12/15 00:48:13;;;;;;;15.60;7.22;;;6.50;99.90;;;;;;4925045;29;20052;-76
2023/12/15 00:50:39;;;;;;;22.40;8.18;;;6.50;99.90;;;;;;4924590;29;20468;-76
2023/12/15 00:53:04;;;;;;;11.93;6.38;;;6.50;99.90;;;;;;4920369;29;20044;-76
2023/12/15 00:55:30;;;;;;;12.65;6.45;;;6.50;99.90;;;;;;4926399;29;20047;-76
2023/12/15 00:57:56;;;;;;;14.07;8.43;;;6.40;99.90;;;;;;4930599;28;20048;-77
2023/12/15 01:00:21;;;;;;;9.02;6.82;;;6.40;99.90;;;;;;4926427;29;20161;-76
2023/12/15 01:02:47;;;;;;;17.67;8.75;;;6.40;99.90;;;;;;4941043;29;20051;-76
2023/12/15 01:05:12;;;;;;;12.45;7.13;;;6.40;99.90;;;;;;4908799;29;20066;-76
2023/12/15 01:07:38;;;;;;;13.80;7.00;;;6.40;99.90;;;;;;4925238;29;20051;-77
2023/12/15 01:10:04;;;;;;;11.43;6.60;;;6.30;99.90;;;;;;4940902;29;20056;-76
2023/12/15 01:12:29;;;;;;;10.20;6.80;;;6.30;99.90;;;;;;4926067;29;20486;-76
2023/12/15 01:14:55;;;;;;;8.85;6.22;;;6.30;99.90;;;;;;4942662;29;20048;-77
2023/12/15 01:17:21;;;;;;;10.93;6.78;;;6.30;99.90;;;;;;4924890;29;20056;-76
2023/12/15 01:19:46;;;;;;;10.20;5.55;;;6.30;99.90;;;;;;4925477;29;20479;-77
2023/12/15 01:22:12;;;;;;;15.52;6.93;;;6.20;99.90;;;;;;4925468;29;20052;-76
2023/12/15 01:24:37;;;;;;;11.27;4.95;;;6.20;99.90;;;;;;4925165;29;20754;-76
2023/12/15 01:27:03;;;;;;;11.63;7.07;;;6.20;99.90;;;;;;4924207;28;20044;-76
2023/12/15 01:29:29;;;;;;;9.38;6.97;;;6.20;99.90;;;;;;4904781;29;20139;-76
2023/12/15 01:31:54;;;;;;;12.45;6.65;;;6.10;99.90;;;;;;4907517;29;20086;-77
2023/12/15 01:34:20;;;;;;;13.25;5.82;;;6.10;99.90;;;;;;4923959;29;20040;-76
2023/12/15 01:36:45;;;;;;;12.48;5.30;;;6.10;99.90;;;;;;4925959;29;20431;-77
2023/12/15 01:39:11;;;;;;;7.28;4.90;;;6.10;99.90;;;;;;4923927;29;20514;-76
2023/12/15 01:41:36;;;;;;;7.28;5.15;;;6.10;99.90;;;;;;4924792;29;20261;-76
2023/12/15 01:44:02;;;;;;;11.93;6.38;;;6.10;99.90;;;;;;4923978;29;20064;-77
2023/12/15 01:46:28;;;;;;;9.30;5.75;;;6.10;99.90;;;;;;4925798;29;20407;-76
2023/12/15 01:48:53;;;;;;;10.43;5.72;;;6.10;99.90;;;;;;4924459;29;20047;-77
2023/12/15 01:51:19;;;;;;;9.20;4.80;;;6.10;99.90;;;;;;4925495;29;20102;-76
2023/12/15 01:53:44;;;;;;;7.65;4.30;;;6.10;99.90;;;;;;4922145;29;20521;-77
2023/12/15 01:56:10;;;;;;;5.10;4.57;;;6.20;99.90;;;;;;4906563;29;20454;-77
2023/12/15 01:58:36;;;;;;;9.57;4.30;;;6.10;99.90;;;;;;4916878;29;20065;-76
2023/12/15 02:01:02;;;;;;;7.35;4.43;;;6.20;99.90;;;;;;4923859;29;20055;-76
2023/12/15 02:03:27;;;;;;;6.13;3.45;;;6.20;99.90;;;;;;4924269;29;20055;-76
2023/12/15 02:05:53;;;;;;;7.95;5.88;;;6.10;99.90;;;;;;4923453;29;20032;-76
2023/12/15 02:08:18;;;;;;;12.00;5.38;;;6.10;99.90;;;;;;4924156;29;20050;-76
2023/12/15 02:10:44;;;;;;;9.82;4.88;;;6.00;99.90;;;;;;4933684;29;20043;-76
2023/12/15 02:13:09;;;;;;;8.52;5.15;;;6.00;99.90;;;;;;4923112;29;20056;-76
2023/12/15 02:15:35;;;;;;;6.03;4.10;;;6.00;99.90;;;;;;4923735;29;20055;-76
2023/12/15 02:18:01;;;;;;;10.82;3.85;;;5.90;99.90;;;;;;4924570;29;20060;-77
2023/12/15 02:20:26;;;;;;;8.57;5.00;;;5.90;99.90;;;;;;4923169;29;20196;-77
2023/12/15 02:22:52;;;;;;;16.35;5.28;;;5.80;99.90;;;;;;4909376;29;20044;-76
2023/12/15 02:25:18;;;;;;;5.43;4.00;;;5.80;99.90;;;;;;4906560;29;20440;-77
2023/12/15 02:27:43;;;;;;;5.85;4.57;;;5.80;99.90;;;;;;4905804;29;20542;-77
2023/12/15 02:30:09;;;;;;;7.70;4.05;;;5.70;99.90;;;;;;4923364;29;20183;-76
2023/12/15 02:32:35;;;;;;;6.97;3.38;;;5.70;99.90;;;;;;4907290;29;20048;-77
2023/12/15 02:35:00;;;;;;;6.93;4.60;;;5.60;99.90;;;;;;4921868;29;20048;-76
2023/12/15 02:37:27;;;;;;;8.68;4.45;;;5.60;99.90;;;;;;4923284;29;20111;-76
2023/12/15 02:39:53;;;;;;;5.55;3.85;;;5.60;99.90;;;;;;4923101;29;20054;-77
2023/12/15 02:42:18;;;;;;;9.30;4.70;;;5.60;99.90;;;;;;4922555;29;20499;-77
2023/12/15 02:44:45;;;;;;;11.20;3.83;;;5.60;99.90;;;;;;4905995;29;20403;-76
2023/12/15 02:47:11;;;;;;;4.53;2.95;;;5.60;99.90;;;;;;4905547;29;20068;-76
2023/12/15 02:49:40;;;;;;;7.13;4.53;;;5.60;99.90;;;;;;4917511;29;20055;-77
2023/12/15 02:52:06;;;;;;;6.65;3.67;;;5.60;99.90;;;;;;4922737;29;20487;-76
2023/12/15 02:54:33;;;;;;;16.55;4.78;;;5.60;99.90;;;;;;4904806;29;20086;-76
2023/12/15 02:56:58;;;;;;;10.70;3.22;;;5.60;99.90;;;;;;4903958;29;20052;-77
2023/12/15 02:59:24;;;;;;;6.68;3.80;;;5.60;99.90;;;;;;4928887;29;20066;-77
2023/12/15 03:01:49;;;;;;;6.55;4.40;;;5.60;99.90;;;;;;4954820;28;20055;-77
2023/12/15 03:04:15;;;;;;;5.68;3.67;;;5.60;99.90;;;;;;4923253;29;20090;-76
2023/12/15 03:06:41;;;;;;;10.90;4.43;;;5.60;99.90;;;;;;4924889;29;20064;-76
2023/12/15 03:09:06;;;;;;;7.15;4.00;;;5.60;99.90;;;;;;4931424;29;20482;-77
2023/12/15 03:11:32;;;;;;;5.07;4.35;;;5.50;99.90;;;;;;4943931;28;20053;-76
2023/12/15 03:13:58;;;;;;;5.78;3.30;;;5.50;99.90;;;;;;4904433;29;20052;-77
2023/12/15 03:16:26;;;;;;;8.82;4.55;;;5.50;99.90;;;;;;4905578;29;20534;-76
2023/12/15 03:18:52;;;;;;;6.90;3.30;;;5.40;99.90;;;;;;4910454;29;20047;-76
2023/12/15 03:21:17;;;;;;;6.68;3.88;;;5.40;99.90;;;;;;4922653;29;20495;-77
2023/12/15 03:23:43;;;;;;;4.78;3.47;;;5.40;99.90;;;;;;4906874;29;20100;-76
2023/12/15 03:26:08;;;;;;;7.28;2.70;;;5.40;99.90;;;;;;4904931;29;20040;-76
2023/12/15 03:28:34;;;;;;;6.03;3.47;;;5.40;99.90;;;;;;4909617;29;20094;-76
2023/12/15 03:30:59;;;;;;;4.10;2.67;;;5.40;99.90;;;;;;4923498;29;20055;-76
2023/12/15 03:33:25;;;;;;;3.88;3.05;;;5.40;99.90;;;;;;4908579;29;20048;-76
2023/12/15 03:35:51;;;;;;;4.38;3.92;;;5.50;99.90;;;;;;4904633;29;20506;-76
2023/12/15 03:38:17;;;;;;;3.92;3.25;;;5.50;99.90;;;;;;4907613;29;20380;-76
2023/12/15 03:40:43;;;;;;;9.10;4.18;;;5.50;99.90;;;;;;4922658;29;20054;-77
2023/12/15 03:43:09;;;;;;;4.78;3.58;;;5.50;99.90;;;;;;4912917;29;20045;-76
2023/12/15 03:45:34;;;;;;;5.45;2.85;;;5.60;99.90;;;;;;4903606;29;20502;-76
2023/12/15 03:48:00;;;;;;;13.20;4.18;;;5.60;99.90;;;;;;4904237;29;20127;-75
2023/12/15 03:50:25;;;;;;;8.57;3.80;;;5.60;99.90;;;;;;4922736;29;20051;-76
2023/12/15 03:52:51;;;;;;;5.85;3.22;;;5.50;99.90;;;;;;4924718;29;20044;-76
2023/12/15 03:55:17;;;;;;;11.45;4.28;;;5.50;99.90;;;;;;4928563;29;20083;-76
2023/12/15 03:57:42;;;;;;;4.13;3.08;;;5.50;99.90;;;;;;4927432;29;20399;-76
2023/12/15 04:00:08;;;;;;;5.53;3.15;;;5.40;99.90;;;;;;4926513;29;20039;-77
2023/12/15 04:02:35;;;;;;;3.38;2.95;;;5.40;99.90;;;;;;4926674;29;20114;-76
2023/12/15 04:05:00;;;;;;;6.18;3.05;;;5.30;99.90;;;;;;4923870;29;20043;-76
2023/12/15 04:07:26;;;;;;;7.43;2.67;;;5.30;99.90;;;;;;4927861;29;20070;-76
2023/12/15 04:09:52;;;;;;;3.30;3.00;;;5.20;99.90;;;;;;4926207;29;20395;-77
2023/12/15 04:12:18;;;;;;;4.30;2.25;;;5.20;99.90;;;;;;4927871;29;20043;-76
2023/12/15 04:14:43;;;;;;;4.20;2.40;;;5.10;99.90;;;;;;4927357;29;20059;-76
2023/12/15 04:17:09;;;;;;;4.70;1.98;;;5.10;99.90;;;;;;4925669;29;20534;-77
2023/12/15 04:19:34;;;;;;;12.05;3.85;;;5.10;99.90;;;;;;4915929;29;20131;-76
2023/12/15 04:22:00;;;;;;;7.45;3.10;;;5.10;99.90;;;;;;4906326;29;20410;-76
2023/12/15 04:24:25;;;;;;;5.78;1.95;;;5.10;99.90;;;;;;4908657;29;20048;-76
2023/12/15 04:26:51;;;;;;;5.47;3.00;;;5.10;99.90;;;;;;4922277;29;20044;-77
2023/12/15 04:29:17;;;;;;;4.18;3.03;;;5.10;99.90;;;;;;4918956;29;20044;-76
2023/12/15 04:31:43;;;;;;;5.57;3.00;;;5.10;99.90;;;;;;4908288;29;20089;-76
2023/12/15 04:34:09;;;;;;;9.55;2.22;;;5.10;99.90;;;;;;4906581;29;20143;-77
2023/12/15 04:36:34;;;;;;;7.72;3.28;;;5.10;99.90;;;;;;4920465;29;20040;-77
2023/12/15 04:39:00;;;;;;;6.18;2.72;;;5.10;99.90;;;;;;4920153;29;20119;-77
2023/12/15 04:41:26;;;;;;;3.88;1.50;;;5.10;99.90;;;;;;4907580;29;20048;-76
2023/12/15 04:43:52;;;;;;;7.30;2.55;;;5.10;99.90;;;;;;4908292;29;20047;-77
2023/12/15 04:46:29;;;;;;;8.05;3.05;;;5.10;99.90;;;;;;4921324;29;20055;-76
2023/12/15 04:48:57;;;;;;;3.28;2.78;;;5.10;99.90;;;;;;4930070;29;20100;-76
2023/12/15 04:51:23;;;;;;;6.20;2.90;;;5.00;99.90;;;;;;4924747;29;20104;-76
2023/12/15 04:53:49;;;;;;;2.85;2.20;;;5.00;99.90;;;;;;4926247;29;20051;-76
2023/12/15 04:56:16;;;;;;;6.90;2.50;;;5.00;99.90;;;;;;4949913;28;20043;-77
2023/12/15 04:58:43;;;;;;;5.68;2.53;;;5.00;99.90;;;;;;4939565;28;20048;-76
2023/12/15 05:01:13;;;;;;;3.30;2.58;;;4.90;99.90;;;;;;4921977;29;20055;-77
2023/12/15 05:03:42;;;;;;;4.03;1.50;;;4.90;99.90;;;;;;4907145;29;20048;-76
2023/12/15 05:06:17;;;;;;;6.25;2.05;;;4.90;99.90;;;;;;4921710;29;20494;-76
2023/12/15 05:08:43;;;;;;;4.78;2.55;;;4.90;99.90;;;;;;4933639;28;20407;-77
2023/12/15 05:11:09;;;;;;;5.28;2.60;;;4.90;99.90;;;;;;4921592;29;20660;-76
2023/12/15 05:13:35;;;;;;;2.65;1.92;;;4.80;99.90;;;;;;4926265;29;20067;-76
2023/12/15 05:16:00;;;;;;;3.22;1.83;;;4.80;99.90;;;;;;4931998;29;20055;-77
2023/12/15 05:18:26;;;;;;;4.82;1.90;;;4.80;99.90;;;;;;4944979;28;20098;-76
2023/12/15 05:20:51;;;;;;;2.17;1.17;;;4.80;99.90;;;;;;4941396;28;20131;-76
2023/12/15 05:23:17;;;;;;;3.83;1.10;;;4.80;99.90;;;;;;4918645;29;20610;-76
2023/12/15 05:25:43;;;;;;;3.28;1.92;;;4.70;99.90;;;;;;4928924;29;20074;-76
2023/12/15 05:28:08;;;;;;;2.10;1.45;;;4.70;99.90;;;;;;4944152;29;20055;-76
2023/12/15 05:30:34;;;;;;;3.22;1.75;;;4.70;99.90;;;;;;4927363;29;20052;-76
2023/12/15 05:32:59;;;;;;;4.28;1.92;;;4.70;99.90;;;;;;4915083;29;20098;-76
2023/12/15 05:35:25;;;;;;;2.10;1.90;;;4.70;99.90;;;;;;4924827;29;20039;-76
2023/12/15 05:37:50;;;;;;;7.65;2.10;;;4.80;99.90;;;;;;4943825;29;20796;-77
2023/12/15 05:40:16;;;;;;;1.60;1.40;;;4.80;99.90;;;;;;4928260;29;20062;-77
2023/12/15 05:42:42;;;;;;;1.15;0.85;;;4.70;99.90;;;;;;4916304;29;20480;-77
2023/12/15 05:45:08;;;;;;;4.10;1.40;;;4.70;99.90;;;;;;4906644;29;20044;-77
2023/12/15 05:47:36;;;;;;;5.78;2.15;;;4.70;99.90;;;;;;4943287;29;20043;-77
2023/12/15 05:50:02;;;;;;;4.97;2.10;;;4.70;99.90;;;;;;4942782;29;20051;-76
2023/12/15 05:52:27;;;;;;;11.80;2.42;;;4.70;99.90;;;;;;4921230;28;20403;-77
2023/12/15 05:54:53;;;;;;;5.78;1.77;;;4.80;99.90;;;;;;4905097;29;20353;-76
2023/12/15 05:57:19;;;;;;;2.13;1.02;;;4.70;99.90;;;;;;4938156;29;20175;-77
2023/12/15 05:59:44;;;;;;;11.05;1.95;;;4.70;99.90;;;;;;4943630;29;20202;-76
2023/12/15 06:02:10;;;;;;;10.10;2.05;;;4.70;99.90;;;;;;4946846;28;20115;-76
2023/12/15 06:04:35;;;;;;;5.85;1.25;;;4.70;99.90;;;;;;4940343;28;20051;-76
2023/12/15 06:07:01;;;;;;;5.13;2.08;;;4.60;99.90;;;;;;4923970;29;20138;-76
2023/12/15 06:09:27;;;;;;;2.15;1.33;;;4.70;99.90;;;;;;4924198;29;20036;-76
2023/12/15 06:11:53;;;;;;;5.10;2.00;;;4.60;99.90;;;;;;4906627;29;20047;-77
2023/12/15 06:14:20;;;;;;;6.45;1.33;;;4.60;99.90;;;;;;4927476;29;20059;-77
2023/12/15 06:16:47;;;;;;;3.42;1.73;;;4.60;99.90;;;;;;4941867;29;20047;-77
2023/12/15 06:19:13;;;;;;;4.13;1.73;;;4.60;99.90;;;;;;4925945;29;20078;-77
2023/12/15 06:21:38;;;;;;;7.05;1.60;;;4.60;99.90;;;;;;4923781;29;20051;-77
2023/12/15 06:24:04;;;;;;;1.92;1.80;;;4.60;99.90;;;;;;4934966;29;20115;-77
2023/12/15 06:26:30;;;;;;;3.33;1.55;;;4.60;99.90;;;;;;4926252;28;20044;-76
2023/12/15 06:28:55;;;;;;;3.50;1.52;;;4.60;99.90;;;;;;4922773;29;20126;-77
2023/12/15 06:31:21;;;;;;;4.65;3.08;;;4.60;99.90;;;;;;4923873;29;20478;-77
2023/12/15 06:33:47;;;;;;;3.17;0.98;;;4.60;99.90;;;;;;4921432;29;20039;-78
2023/12/15 06:36:13;;;;;;;12.95;2.80;;;4.60;99.90;;;;;;4916520;29;20561;-78
2023/12/15 06:38:42;;;;;;;4.85;0.93;;;4.60;99.90;;;;;;4922749;29;20402;-77
2023/12/15 06:41:09;;;;;;;5.30;2.78;;;4.60;99.90;;;;;;4923193;29;20051;-78
2023/12/15 06:43:42;;;;;;;4.30;2.40;;;4.60;99.90;;;;;;4922531;29;20058;-77
2023/12/15 06:46:08;;;;;;;9.57;2.28;;;4.60;99.90;;;;;;4905671;29;20060;-77
2023/12/15 06:48:34;;;;;;;3.30;1.17;;;4.60;99.90;;;;;;4904989;29;20055;-77
2023/12/15 06:51:00;;;;;;;4.80;1.88;;;4.60;99.90;;;;;;4904079;29;20060;-78
2023/12/15 06:53:26;;;;;;;6.68;2.72;;;4.60;99.90;;;;;;4905186;29;20415;-77
2023/12/15 06:55:52;;;;;;;2.33;1.50;;;4.60;99.90;;;;;;4904311;29;20083;-78
2023/12/15 06:58:18;;;;;;;4.60;1.45;;;4.60;99.90;;;;;;4905954;29;20051;-78
2023/12/15 07:00:43;;;;;;;0.93;0.93;;;4.60;99.90;;;;;;4904231;29;20047;-78
2023/12/15 07:03:09;;;;;;;2.80;1.38;;;4.60;99.90;;;;;;4904345;29;20079;-78
2023/12/15 07:05:35;;;;;;;6.88;2.03;;;4.50;99.90;;;;;;4920878;29;20036;-77
2023/12/15 07:08:01;;;;;;;2.10;1.38;;;4.60;99.90;;;;;;4923631;29;20466;-78
2023/12/15 07:10:27;;;;;;;2.10;1.95;;;4.60;99.90;;;;;;4924337;29;20150;-77
2023/12/15 07:12:53;;;;;;;4.95;1.40;;;4.60;99.90;;;;;;4954193;28;20080;-77
2023/12/15 07:15:18;;;;;;;2.80;1.95;;;4.60;99.90;;;;;;4920196;29;20554;-78
2023/12/15 07:17:45;;;;;;;5.25;1.73;;;4.60;99.90;;;;;;4923117;29;20054;-76
2023/12/15 07:20:10;;;;;;;6.55;2.95;;;4.60;99.90;;;;;;4920572;29;20048;-77
2023/12/15 07:22:36;;;;;;;5.00;2.08;;;4.70;99.90;;;;;;4924303;29;20056;-78
2023/12/15 07:25:02;;;;;;;9.85;3.17;;;4.70;99.90;;;;;;4923124;29;20645;-77
2023/12/15 07:27:27;;;;;;;9.02;3.17;;;4.70;99.90;;;;;;4925400;29;20055;-77
2023/12/15 07:29:53;;;;;;;11.23;2.72;;;4.70;99.90;;;;;;4926790;29;20102;-77
2023/12/15 07:32:19;;;;;;;9.88;3.53;;;4.70;99.90;;;;;;4927014;29;20123;-77
2023/12/15 07:34:44;;;;;;;9.35;3.28;;;4.70;99.90;;;;;;4926807;29;20054;-78
2023/12/15 07:37:11;;;;;;;5.97;3.05;;;4.80;99.90;;;;;;4929306;29;20634;-76
2023/12/15 07:39:36;;;;;;;5.05;2.28;;;4.80;99.90;;;;;;4928930;29;20139;-76
2023/12/15 07:42:02;;;;;;;3.20;1.98;;;4.80;99.90;;;;;;4927281;29;20134;-78
2023/12/15 07:44:27;;;;;;;2.60;1.73;;;4.80;99.90;;;;;;4926742;29;20099;-78
2023/12/15 07:46:55;;;;;;;9.68;3.85;;;4.80;99.90;;;;;;4926671;29;20529;-77
2023/12/15 07:49:22;;;;;;;3.92;2.40;;;4.80;99.90;;;;;;4926142;29;20044;-77
2023/12/15 07:51:49;;;;;;;11.77;3.90;;;4.80;99.90;;;;;;4927207;29;20087;-76
2023/12/15 07:54:15;;;;;;;17.83;2.83;;;4.90;99.90;;;;;;4927416;29;20554;-79
2023/12/15 07:56:41;;;;;;;4.97;2.05;;;4.90;99.90;;;;;;4926721;29;20055;-76
2023/12/15 07:59:07;;;;;;;5.50;1.98;;;4.90;99.90;;;;;;4927208;29;20106;-78
2023/12/15 08:01:34;;;;;;;3.10;2.55;;;4.90;99.90;;;;;;4927603;29;20495;-78
2023/12/15 08:04:00;;;;;;;11.48;2.38;;;4.90;99.90;;;;;;4926073;29;20043;-77
2023/12/15 08:06:25;;;;;;;7.93;3.33;;;5.00;99.90;;;;;;4926610;29;20047;-78
2023/12/15 08:08:52;;;;;;;6.43;3.60;;;5.00;99.90;;;;;;4924037;29;20494;-78
2023/12/15 08:11:18;;;;;;;9.18;3.35;;;5.00;99.90;;;;;;4925025;29;20043;-77
2023/12/15 08:13:44;;;;;;;5.80;3.50;;;5.00;99.90;;;;;;4925486;29;20040;-78
2023/12/15 08:16:11;;;;;;;4.07;2.00;;;5.00;99.90;;;;;;4925394;29;20055;-77
2023/12/15 08:18:37;;;;;;;4.80;2.15;;;5.00;99.90;;;;;;4927060;29;20516;-77
2023/12/15 08:21:03;;;;;;;8.75;2.30;;;5.10;99.90;;;;;;4911788;29;20115;-78
2023/12/15 08:23:28;;;;;;;4.40;2.10;;;5.10;99.90;;;;;;4916791;29;20598;-75
2023/12/15 08:25:54;;;;;;;5.63;2.85;;;5.10;99.90;;;;;;4924939;29;20490;-74
2023/12/15 08:28:20;;;;;;;7.78;3.38;;;5.10;99.90;;;;;;4924206;29;20653;-76
2023/12/15 08:30:49;;;;;;;6.40;3.30;;;5.10;99.90;;;;;;4915497;29;20108;-79
2023/12/15 08:33:15;;;;;;;7.63;2.55;;;5.10;99.90;;;;;;4904498;29;20055;-75
2023/12/15 08:35:41;;;;;;;10.82;5.70;;;5.10;99.90;;;;;;4939855;28;20671;-76
2023/12/15 08:38:06;;;;;;;6.82;3.53;;;5.10;99.90;;;;;;4924828;29;20050;-74
2023/12/15 08:40:32;;;;;;;5.25;2.53;;;5.10;99.90;;;;;;4928252;29;20039;-77
2023/12/15 08:42:58;;;;;;;5.85;4.25;;;5.20;99.90;;;;;;4925316;29;20054;-76
2023/12/15 08:45:23;;;;;;;6.38;2.65;;;5.20;99.90;;;;;;4924964;29;20103;-76
2023/12/15 08:47:49;;;;;;;4.85;2.53;;;5.20;99.90;;;;;;4929706;29;20039;-75
2023/12/15 08:50:15;;;;;;;7.22;3.72;;;5.20;99.90;;;;;;4926753;29;20487;-76
2023/12/15 08:52:40;;;;;;;5.78;2.40;;;5.30;99.90;;;;;;4929199;29;20487;-74
2023/12/15 08:55:07;;;;;;;8.15;4.30;;;5.30;99.90;;;;;;4928552;28;20059;-78
2023/12/15 08:57:33;;;;;;;6.70;2.85;;;5.30;99.90;;;;;;4926794;29;20044;-78
2023/12/15 08:59:59;;;;;;;9.07;2.47;;;5.40;99.90;;;;;;4926133;29;20044;-74
2023/12/15 09:02:25;;;;;;;9.85;4.90;;;5.40;99.90;;;;;;4919589;29;20550;-75
2023/12/15 09:04:51;;;;;;;11.55;2.88;;;5.50;99.90;;;;;;4927135;29;20095;-76
2023/12/15 09:07:17;;;;;;;5.47;2.60;;;5.50;99.90;;;;;;4924215;29;20055;-74
2023/12/15 09:09:43;;;;;;;6.40;2.08;;;5.50;99.90;;;;;;4933736;29;20042;-76
2023/12/15 09:12:10;;;;;;;6.95;2.60;;;5.50;99.90;;;;;;4933118;29;20126;-75
2023/12/15 09:14:36;;;;;;;12.43;3.63;;;5.60;99.90;;;;;;4931987;29;20062;-75
2023/12/15 09:17:03;;;;;;;8.57;3.35;;;5.60;99.90;;;;;;4932453;28;20063;-75
2023/12/15 09:19:29;;;;;;;15.82;4.82;;;5.70;99.90;;;;;;4931989;28;20668;-75
2023/12/15 09:21:55;;;;;;;6.30;3.75;;;5.70;99.90;;;;;;4929657;29;20507;-75
2023/12/15 09:24:21;;;;;;;11.55;4.63;;;5.70;99.90;;;;;;4932714;29;20103;-74
2023/12/15 09:26:46;;;;;;;4.32;2.58;;;5.80;99.90;;;;;;4924755;29;20070;-74
2023/12/15 09:29:13;;;;;;;8.00;3.63;;;5.80;99.90;;;;;;4924537;29;20090;-78
2023/12/15 09:31:39;;;;;;;7.25;3.70;;;5.90;99.90;;;;;;4922502;29;20079;-75
2023/12/15 09:34:05;;;;;;;11.40;4.13;;;5.80;99.90;;;;;;4922030;29;20043;-75
2023/12/15 09:36:31;;;;;;;7.22;2.55;;;5.90;99.90;;;;;;4924597;29;20036;-75
2023/12/15 09:38:57;;;;;;;21.70;4.10;;;5.90;99.90;;;;;;4933012;28;20483;-75
2023/12/15 09:41:22;;;;;;;11.40;3.75;;;6.00;99.90;;;;;;4922604;29;20050;-78
2023/12/15 09:43:48;;;;;;;10.73;4.20;;;5.90;99.90;;;;;;4938736;29;20487;-79
2023/12/15 09:46:14;;;;;;;6.60;3.10;;;6.00;99.90;;;;;;4923067;29;20597;-77
2023/12/15 09:48:40;;;;;;;27.67;4.50;;;6.10;99.90;;;;;;4921970;29;20055;-75
2023/12/15 09:51:15;;;;;;;6.97;3.97;;;6.20;99.90;;;;;;4923167;29;20050;-76
2023/12/15 09:53:45;;;;;;;9.57;2.63;;;6.20;99.90;;;;;;4922460;29;20039;-75
2023/12/15 09:56:11;;;;;;;9.75;3.25;;;6.30;99.90;;;;;;4922581;29;20485;-76
2023/12/15 09:58:38;;;;;;;8.43;2.65;;;6.30;99.90;;;;;;4924080;29;20040;-77
2023/12/15 10:01:04;;;;;;;13.18;3.63;;;6.40;99.90;;;;;;4922003;29;20044;-77
2023/12/15 10:03:31;;;;;;;17.52;3.67;;;6.40;99.90;;;;;;4923718;29;20425;-75
2023/12/15 10:05:56;;;;;;;20.30;3.97;;;6.50;99.90;;;;;;4921009;29;20087;-74
2023/12/15 10:08:24;;;;;;;10.15;3.03;;;6.60;99.90;;;;;;4933852;29;20779;-77
2023/12/15 10:10:50;;;;;;;16.42;5.95;;;6.60;99.90;;;;;;4922412;29;20063;-76
2023/12/15 10:13:16;;;;;;;11.98;3.38;;;6.60;99.90;;;;;;4937984;29;20047;-77
2023/12/15 10:15:41;;;;;;;11.60;3.80;;;6.70;99.90;;;;;;4922273;29;20044;-77
2023/12/15 10:18:07;;;;;;;12.05;4.15;;;6.70;99.90;;;;;;4921085;29;20406;-75
2023/12/15 10:20:33;;;;;;;11.50;3.55;;;6.80;99.90;;;;;;4934240;29;20044;-76
2023/12/15 10:23:04;;;;;;;10.07;3.00;;;6.80;99.90;;;;;;4946799;28;20045;-76
2023/12/15 10:25:30;;;;;;;7.75;3.05;;;6.80;99.90;;;;;;4909634;29;20042;-77
2023/12/15 10:27:56;;;;;;;11.15;3.60;;;6.80;99.90;;;;;;4922183;29;20055;-76
2023/12/15 10:30:21;;;;;;;28.02;4.28;;;6.90;99.90;;;;;;4922904;29;20317;-77
2023/12/15 10:32:48;;;;;;;4.75;3.13;;;6.90;99.90;;;;;;4923158;29;20047;-76
2023/12/15 10:35:14;;;;;;;15.02;3.92;;;7.00;99.90;;;;;;4920425;29;20094;-75
2023/12/15 10:37:41;;;;;;;12.75;3.35;;;7.00;99.90;;;;;;4923212;29;20620;-77
2023/12/15 10:40:07;;;;;;;13.70;2.95;;;7.00;99.90;;;;;;4923008;29;20186;-76
2023/12/15 10:42:34;;;;;;;13.38;3.90;;;7.10;99.90;;;;;;4924170;29;20139;-75
2023/12/15 10:45:04;;;;;;;12.77;3.58;;;7.10;99.90;;;;;;4923517;29;20055;-76
2023/12/15 10:47:32;;;;;;;13.05;4.15;;;7.20;99.90;;;;;;4922825;29;20058;-77
2023/12/15 10:49:58;;;;;;;21.77;4.55;;;7.20;99.90;;;;;;4924593;29;20125;-75
2023/12/15 10:52:24;;;;;;;19.55;4.22;;;7.20;99.90;;;;;;4925393;29;20603;-77
2023/12/15 10:54:51;;;;;;;13.93;3.83;;;7.20;99.90;;;;;;4923512;29;20055;-76
2023/12/15 10:57:19;;;;;;;14.45;3.63;;;7.30;99.90;;;;;;4923778;29;20059;-75
2023/12/15 10:59:47;;;;;;;12.45;4.30;;;7.30;99.90;;;;;;4924292;29;20091;-76
2023/12/15 11:02:16;;;;;;;7.32;3.00;;;7.30;99.90;;;;;;4923101;29;20047;-76
2023/12/15 11:04:41;;;;;;;8.82;2.40;;;7.30;99.90;;;;;;4925691;29;20116;-75
2023/12/15 11:07:07;;;;;;;7.65;4.00;;;7.40;99.90;;;;;;4918726;29;20084;-76
2023/12/15 11:09:34;;;;;;;27.17;4.68;;;7.40;99.90;;;;;;4921434;29;20044;-76
2023/12/15 11:12:20;;;;;;;19.17;3.70;;;7.50;99.90;;;;;;4922229;29;20705;-75
2023/12/15 11:14:53;;;;;;;12.30;4.43;;;7.40;99.90;;;;;;4922147;29;20072;-76
2023/12/15 11:17:20;;;;;;;7.25;3.10;;;7.50;99.90;;;;;;4921745;29;20055;-76
2023/12/15 11:19:51;;;;;;;20.00;4.10;;;7.50;99.90;;;;;;4922096;29;20133;-78
2023/12/15 11:22:17;;;;;;;11.30;3.72;;;7.50;99.90;;;;;;4925302;29;20039;-76
2023/12/15 11:24:43;;;;;;;21.63;4.53;;;7.50;99.90;;;;;;4947156;28;20044;-76
2023/12/15 11:27:12;;;;;;;13.73;4.95;;;7.50;99.90;;;;;;4925168;29;20052;-76
2023/12/15 11:29:37;;;;;;;12.82;3.88;;;7.60;99.90;;;;;;4954132;28;20054;-76
2023/12/15 11:32:28;;;;;;;16.67;5.20;;;7.60;99.90;;;;;;4933937;29;20048;-76
2023/12/15 11:34:53;;;;;;;12.63;3.80;;;7.60;99.90;;;;;;4919983;29;20473;-76
2023/12/15 11:37:19;;;;;;;7.47;2.88;;;7.70;99.90;;;;;;4931012;29;20126;-76
2023/12/15 11:39:49;;;;;;;13.70;4.38;;;7.70;99.90;;;;;;4948911;28;20067;-75
2023/12/15 11:42:15;;;;;;;11.93;3.85;;;7.80;99.90;;;;;;4924457;29;20071;-76
2023/12/15 11:44:44;;;;;;;7.68;3.63;;;7.80;99.90;;;;;;4941324;28;20273;-77
2023/12/15 11:47:11;;;;;;;10.50;4.22;;;7.90;99.90;;;;;;4932394;28;20119;-76
2023/12/15 11:49:42;;;;;;;13.77;3.60;;;7.90;99.90;;;;;;4931996;29;20040;-76
2023/12/15 11:52:10;;;;;;;9.25;3.30;;;7.90;99.90;;;;;;4923821;29;20051;-76
2023/12/15 11:54:36;;;;;;;10.68;3.33;;;8.00;99.90;;;;;;4923240;29;20167;-76
2023/12/15 11:57:05;;;;;;;11.50;4.15;;;8.00;99.90;;;;;;4922654;29;20062;-76
2023/12/15 11:59:44;;;;;;;25.90;4.47;;;8.00;99.90;;;;;;4902974;29;20135;-76
2023/12/15 12:02:16;;;;;;;10.38;3.50;;;8.00;99.90;;;;;;4930222;29;20450;-76
2023/12/15 12:04:48;;;;;;;7.03;2.80;;;8.00;99.90;;;;;;4903483;29;20080;-76
2023/12/15 12:07:14;;;;;;;16.02;3.72;;;8.00;99.90;;;;;;4920409;29;20264;-76
2023/12/15 12:09:39;;;;;;;8.30;3.60;;;8.10;99.90;;;;;;4906543;29;20040;-77
2023/12/15 12:12:06;;;;;;;17.45;3.40;;;8.10;99.90;;;;;;4920711;29;20158;-76
2023/12/15 12:14:33;;;;;;;17.58;4.90;;;8.10;99.90;;;;;;4930007;29;20071;-76
2023/12/15 12:16:59;;;;;;;15.32;4.60;;;8.10;99.90;;;;;;4939538;29;20130;-77
2023/12/15 12:19:24;;;;;;;15.77;3.05;;;8.10;99.90;;;;;;4939074;29;20503;-76
2023/12/15 12:21:52;;;;;;;14.57;3.80;;;8.10;99.90;;;;;;4924842;29;20596;-76
2023/12/15 12:24:19;;;;;;;7.43;3.03;;;8.10;99.90;;;;;;4925191;29;20059;-76
2023/12/15 12:26:46;;;;;;;15.55;2.72;;;8.00;99.90;;;;;;4924977;29;20056;-76
2023/12/15 12:29:13;;;;;;;6.97;2.38;;;8.10;99.90;;;;;;4940397;29;20198;-76
2023/12/15 12:31:39;;;;;;;6.25;3.15;;;8.00;99.90;;;;;;4924733;29;20043;-77
2023/12/15 12:34:05;;;;;;;10.60;3.67;;;8.00;99.90;;;;;;4920255;29;20059;-76
2023/12/15 12:36:30;;;;;;;14.02;3.92;;;8.00;99.90;;;;;;4924748;29;20118;-77
2023/12/15 12:38:56;;;;;;;4.82;2.00;;;8.00;99.90;;;;;;4922873;29;20110;-76
2023/12/15 12:41:23;;;;;;;5.35;2.33;;;8.00;99.90;;;;;;4934987;29;20255;-76
2023/12/15 12:43:48;;;;;;;8.85;1.90;;;8.00;99.90;;;;;;4924862;29;20371;-78
2023/12/15 12:46:14;;;;;;;10.50;3.15;;;8.10;99.90;;;;;;4923946;29;20254;-75
2023/12/15 12:48:40;;;;;;;11.85;2.70;;;8.10;99.90;;;;;;4923323;29;20379;-76